Time;durP1;ratioP1;P1;durP2;ratioP2;P2;SDS_P1;SDS_P2;PMS_P1;PMS_P2;Temp;Humidity;BMP_temperature;BMP_pressure;BME280_temperature;BME280_humidity;BME280_pressure;Samples;Min_cycle;Max_cycle;Signal;HPM_P1;HPM_P2
2022/05/13 00:01:52;;;;;;;3.92;3.47;;;;;;;10.69;100.00;91274.88;5034060;28;20038;-66
2022/05/13 00:04:19;;;;;;;4.38;3.90;;;;;;;10.63;100.00;91262.78;5034053;28;20026;-67
2022/05/13 00:06:45;;;;;;;5.32;3.90;;;;;;;10.60;100.00;91269.50;5034306;28;20029;-67
2022/05/13 00:09:10;;;;;;;5.90;4.07;;;;;;;10.55;100.00;91274.13;5033994;28;20487;-67
2022/05/13 00:11:36;;;;;;;4.10;3.70;;;;;;;10.55;100.00;91268.81;5033833;28;20036;-68
2022/05/13 00:14:02;;;;;;;4.32;3.85;;;;;;;10.55;100.00;91266.16;5033860;28;20384;-67
2022/05/13 00:16:28;;;;;;;5.75;4.10;;;;;;;10.57;100.00;91259.44;5033861;28;20029;-67
2022/05/13 00:18:53;;;;;;;5.97;4.05;;;;;;;10.59;100.00;91251.97;5033779;28;20062;-67
2022/05/13 00:21:19;;;;;;;3.30;2.80;;;;;;;10.59;100.00;91253.84;5033656;28;20099;-67
2022/05/13 00:23:45;;;;;;;3.95;3.38;;;;;;;10.64;100.00;91243.06;5033669;28;20025;-67
2022/05/13 00:26:11;;;;;;;5.88;3.78;;;;;;;10.63;100.00;91241.50;5033685;28;20036;-68
2022/05/13 00:28:36;;;;;;;3.53;3.20;;;;;;;10.74;100.00;91250.84;5033758;28;20025;-67
2022/05/13 00:31:04;;;;;;;4.82;3.42;;;;;;;10.83;100.00;91253.56;5033413;28;20507;-67
2022/05/13 00:33:31;;;;;;;4.28;3.50;;;;;;;10.88;100.00;91254.22;5032236;28;20466;-67
2022/05/13 00:35:57;;;;;;;4.55;3.40;;;;;;;10.83;100.00;91240.25;5033417;28;20030;-67
2022/05/13 00:38:22;;;;;;;4.55;3.13;;;;;;;10.83;100.00;91240.25;5033271;28;20480;-67
2022/05/13 00:40:48;;;;;;;4.55;3.50;;;;;;;10.78;100.00;91235.84;5033273;28;20567;-66
2022/05/13 00:43:40;;;;;;;5.10;3.28;;;;;;;10.86;100.00;91244.97;5033272;28;20032;-67
2022/05/13 00:46:06;;;;;;;4.57;2.97;;;;;;;10.91;100.00;91248.31;5033281;28;20053;-66
2022/05/13 00:48:31;;;;;;;3.67;3.13;;;;;;;10.98;100.00;91256.63;5033262;28;20503;-66
2022/05/13 00:50:57;;;;;;;3.15;2.85;;;;;;;11.08;100.00;91243.09;5032955;28;20523;-66
2022/05/13 00:53:24;;;;;;;4.10;2.92;;;;;;;11.21;100.00;91248.66;5033125;28;20411;-66
2022/05/13 00:55:52;;;;;;;4.50;3.30;;;;;;;11.25;100.00;91244.28;5033090;28;20041;-66
2022/05/13 00:58:19;;;;;;;3.33;2.90;;;;;;;11.26;100.00;91249.31;5033103;28;20022;-66
2022/05/13 01:00:46;;;;;;;3.70;3.10;;;;;;;11.29;100.00;91245.25;5033197;28;20041;-66
2022/05/13 01:03:12;;;;;;;4.28;2.80;;;;;;;11.29;100.00;91243.38;5032902;28;20022;-66
2022/05/13 01:05:41;;;;;;;3.22;2.92;;;;;;;11.27;100.00;91236.78;5031582;28;20029;-66
2022/05/13 01:08:08;;;;;;;3.65;2.92;;;;;;;11.34;100.00;91245.13;5033097;28;20083;-66
2022/05/13 01:10:36;;;;;;;3.45;3.00;;;;;;;11.37;100.00;91239.19;5032732;28;20037;-66
2022/05/13 01:13:07;;;;;;;4.75;3.85;;;;;;;11.29;100.00;91247.91;5032716;28;20084;-66
2022/05/13 01:15:36;;;;;;;5.28;3.85;;;;;;;11.28;100.00;91244.47;5032648;28;20065;-66
2022/05/13 01:18:07;;;;;;;3.40;2.90;;;;;;;11.24;100.00;91240.06;5032768;28;20039;-66
2022/05/13 01:20:46;;;;;;;4.25;3.15;;;;;;;11.25;100.00;91244.28;5032541;28;20036;-66
2022/05/13 01:23:17;;;;;;;3.13;2.83;;;;;;;11.08;100.00;91242.31;5032599;28;20500;-66
2022/05/13 01:25:49;;;;;;;3.83;3.42;;;;;;;10.99;100.00;91246.78;5032817;28;20060;-66
2022/05/13 01:28:20;;;;;;;5.15;3.60;;;;;;;10.86;100.00;91239.63;5032489;28;20689;-66
2022/05/13 01:30:49;;;;;;;4.10;3.33;;;;;;;10.65;100.00;91228.69;5032161;28;20044;-66
2022/05/13 01:33:15;;;;;;;4.13;3.30;;;;;;;10.46;100.00;91242.16;5031094;28;20130;-66
2022/05/13 01:35:45;;;;;;;3.58;3.25;;;;;;;10.45;100.00;91240.56;5032282;28;20032;-66
2022/05/13 01:38:11;;;;;;;4.30;3.75;;;;;;;10.41;100.00;91239.56;5032345;28;20029;-66
2022/05/13 01:40:36;;;;;;;4.18;3.78;;;;;;;10.39;100.00;91247.84;5032396;28;20044;-66
2022/05/13 01:43:03;;;;;;;6.18;3.55;;;;;;;10.33;100.00;91249.06;5032247;28;20029;-66
2022/05/13 01:45:29;;;;;;;6.13;4.25;;;;;;;10.33;100.00;91243.75;5032277;28;20029;-67
2022/05/13 01:47:54;;;;;;;3.97;3.63;;;;;;;10.27;100.00;91249.47;5032476;28;20026;-66
2022/05/13 01:50:22;;;;;;;3.85;3.42;;;;;;;10.18;100.00;91254.66;5031477;28;20566;-67
2022/05/13 01:52:47;;;;;;;5.00;3.65;;;;;;;10.09;100.00;91245.81;5032061;28;20034;-67
2022/05/13 01:55:13;;;;;;;8.23;3.33;;;;;;;9.94;100.00;91246.09;5031894;28;20399;-67
2022/05/13 01:57:39;;;;;;;5.38;3.83;;;;;;;9.82;100.00;91250.06;5031979;28;20105;-67
2022/05/13 02:00:05;;;;;;;4.43;3.80;;;;;;;9.60;100.00;91252.59;5031856;28;20466;-68
2022/05/13 02:03:43;;;;;;;4.13;3.28;;;;;;;9.63;100.00;91246.72;5031876;28;20030;-67
2022/05/13 02:05:16;;;;;;;5.82;3.78;;;;;;;9.60;100.00;91247.28;5031723;28;20017;-67
2022/05/13 02:07:41;;;;;;;4.25;3.85;;;;;;;9.49;100.00;91243.28;5031851;28;20034;-67
2022/05/13 02:10:07;;;;;;;8.05;4.13;;;;;;;9.40;100.00;91239.69;5031678;28;20032;-67
2022/05/13 02:12:33;;;;;;;6.45;4.10;;;;;;;9.41;100.00;91243.94;5031708;28;20458;-67
2022/05/13 02:14:59;;;;;;;6.43;4.00;;;;;;;9.46;100.00;91244.63;5031656;28;20017;-67
2022/05/13 02:17:25;;;;;;;6.63;3.38;;;;;;;9.57;100.00;91239.91;5031515;28;20041;-67
2022/05/13 02:19:50;;;;;;;3.85;3.55;;;;;;;9.78;100.00;91238.47;5031591;28;20026;-67
2022/05/13 02:22:16;;;;;;;3.35;3.05;;;;;;;9.97;100.00;91229.59;5031490;28;20029;-68
2022/05/13 02:24:41;;;;;;;4.88;3.80;;;;;;;10.12;100.00;91235.38;5031534;28;20030;-68
2022/05/13 02:27:06;;;;;;;4.15;2.97;;;;;;;10.14;100.00;91230.56;5031377;28;20025;-68
2022/05/13 02:29:32;;;;;;;3.97;3.30;;;;;;;10.21;100.00;91235.50;5031491;28;20032;-68
2022/05/13 02:31:57;;;;;;;4.25;3.60;;;;;;;10.14;100.00;91233.22;5031369;28;20490;-68
2022/05/13 02:34:23;;;;;;;3.35;3.05;;;;;;;10.12;100.00;91232.72;5031276;28;20055;-68
2022/05/13 02:36:48;;;;;;;3.58;3.13;;;;;;;10.19;100.00;91227.78;5031394;28;20091;-68
2022/05/13 02:39:13;;;;;;;5.57;3.50;;;;;;;10.30;100.00;91220.41;5031310;28;20744;-69
2022/05/13 02:41:39;;;;;;;2.83;2.58;;;;;;;10.29;100.00;91221.50;5031223;28;20108;-68
2022/05/13 02:44:05;;;;;;;4.25;3.10;;;;;;;10.34;100.00;91224.03;5031173;28;20116;-68
2022/05/13 02:46:32;;;;;;;4.07;2.92;;;;;;;10.39;100.00;91226.56;5031357;28;20056;-69
2022/05/13 02:48:58;;;;;;;4.32;3.05;;;;;;;10.44;100.00;91223.03;5031048;28;20517;-69
2022/05/13 02:51:24;;;;;;;7.18;3.58;;;;;;;10.53;100.00;91223.09;5031081;28;20034;-68
2022/05/13 02:53:50;;;;;;;7.85;3.10;;;;;;;10.54;100.00;91216.69;5031131;28;20407;-68
2022/05/13 02:56:16;;;;;;;6.85;3.58;;;;;;;10.55;100.00;91223.59;5031197;28;20427;-68
2022/05/13 02:58:41;;;;;;;3.25;2.95;;;;;;;10.50;100.00;91224.50;5031159;28;20025;-68
2022/05/13 03:01:09;;;;;;;3.20;2.90;;;;;;;10.50;100.00;91238.56;5030935;28;20033;-69
2022/05/13 03:03:37;;;;;;;6.43;4.10;;;;;;;10.48;100.00;91226.66;5035188;28;20467;-67
2022/05/13 03:06:03;;;;;;;3.85;3.47;;;;;;;10.46;100.00;91239.47;5035167;28;20040;-67
2022/05/13 03:08:28;;;;;;;3.75;2.90;;;;;;;10.57;100.00;91232.03;5035129;28;20030;-67
2022/05/13 03:10:54;;;;;;;4.90;3.83;;;;;;;10.61;100.00;91233.03;5034999;28;20106;-68
2022/05/13 03:13:19;;;;;;;3.17;2.88;;;;;;;10.68;100.00;91231.53;5035025;28;20030;-68
2022/05/13 03:15:46;;;;;;;3.78;2.97;;;;;;;10.69;100.00;91232.31;5034869;28;20099;-68
2022/05/13 03:18:12;;;;;;;2.28;2.17;;;;;;;10.74;100.00;91229.53;5034931;28;20029;-68
2022/05/13 03:20:38;;;;;;;4.93;3.45;;;;;;;10.74;100.00;91233.00;5034771;28;20036;-68
2022/05/13 03:23:03;;;;;;;3.03;2.72;;;;;;;10.75;100.00;91236.44;5034795;28;20033;-68
2022/05/13 03:25:29;;;;;;;3.05;2.75;;;;;;;10.79;100.00;91245.38;5034783;28;20036;-68
2022/05/13 03:27:54;;;;;;;2.97;2.72;;;;;;;10.87;100.00;91242.00;5034761;28;20033;-68
2022/05/13 03:30:22;;;;;;;4.10;2.28;;;;;;;10.88;100.00;91245.44;5034644;28;20040;-68
2022/05/13 03:32:48;;;;;;;2.60;2.40;;;;;;;10.91;100.00;91252.84;5034714;28;20156;-68
2022/05/13 03:35:14;;;;;;;4.07;3.65;;;;;;;10.84;100.00;91247.13;5034495;28;20108;-68
2022/05/13 03:37:40;;;;;;;9.77;5.47;;;;;;;10.73;100.00;91247.38;5034527;28;20037;-68
2022/05/13 03:40:06;;;;;;;7.72;4.93;;;;;;;10.69;100.00;91240.28;5034485;28;20040;-68
2022/05/13 03:42:31;;;;;;;3.20;2.90;;;;;;;10.65;100.00;91250.75;5034034;28;20580;-69
2022/05/13 03:44:57;;;;;;;5.10;2.72;;;;;;;10.66;100.00;91257.66;5034369;28;20026;-69
2022/05/13 03:47:23;;;;;;;10.35;6.22;;;;;;;10.57;100.00;91258.66;5034289;28;20018;-69
2022/05/13 03:49:48;;;;;;;3.60;3.17;;;;;;;10.66;100.00;91252.31;5034002;28;20109;-69
2022/05/13 03:52:14;;;;;;;5.10;3.50;;;;;;;10.64;100.00;91253.72;5034205;28;20025;-69
2022/05/13 03:54:40;;;;;;;3.45;3.10;;;;;;;10.60;100.00;91258.84;5034092;28;20406;-70
2022/05/13 03:57:07;;;;;;;3.55;3.25;;;;;;;10.59;100.00;91256.50;5034101;28;20033;-69
2022/05/13 03:59:34;;;;;;;2.33;2.13;;;;;;;10.65;100.00;91264.06;5033998;28;20120;-68
2022/05/13 04:01:59;;;;;;;3.38;2.80;;;;;;;10.79;100.00;91267.47;5033921;28;20041;-69
2022/05/13 04:04:29;;;;;;;2.53;2.33;;;;;;;10.88;100.00;91261.41;5033445;28;20033;-69
2022/05/13 04:09:40;;;;;;;2.50;2.30;;;;;;;11.09;100.00;91265.97;5034071;28;20064;-68
2022/05/13 04:17:33;;;;;;;2.35;2.08;;;;;;;11.35;100.00;91268.78;5033500;28;20032;-69
2022/05/13 04:19:59;;;;;;;3.40;2.80;;;;;;;11.46;100.00;91268.53;5033672;28;20025;-68
2022/05/13 04:22:24;;;;;;;5.72;3.10;;;;;;;11.51;100.00;91271.06;5033851;28;20029;-68
2022/05/13 04:24:52;;;;;;;8.18;4.15;;;;;;;11.63;100.00;91264.09;5034087;28;20060;-68
2022/05/13 04:27:18;;;;;;;6.30;3.72;;;;;;;11.76;100.00;91273.09;5033649;28;20029;-68
2022/05/13 04:29:43;;;;;;;5.75;3.58;;;;;;;11.87;100.00;91263.75;5033474;28;20170;-68
2022/05/13 04:32:09;;;;;;;2.90;2.70;;;;;;;12.04;100.00;91284.38;5033447;28;20116;-68
2022/05/13 04:34:35;;;;;;;4.60;3.15;;;;;;;12.12;99.30;91259.59;5033379;28;20116;-68
2022/05/13 04:37:02;;;;;;;12.90;5.45;;;;;;;12.26;98.44;91281.63;5033383;28;20033;-66
2022/05/13 04:39:29;;;;;;;45.80;11.13;;;;;;;12.37;97.37;91284.00;5033314;28;20491;-66
2022/05/13 04:44:39;;;;;;;4.00;2.90;;;;;;;12.83;93.58;91289.59;5033380;28;20102;-66
2022/05/13 04:48:15;;;;;;;5.45;3.47;;;;;;;12.95;91.98;91285.53;5032967;28;20021;-68
2022/05/13 04:49:50;;;;;;;19.48;6.72;;;;;;;12.96;91.41;91281.75;5032606;28;20057;-67
2022/05/13 04:52:16;;;;;;;13.95;4.80;;;;;;;13.06;91.46;91286.75;5033003;28;20439;-67
2022/05/13 04:54:41;;;;;;;8.68;4.63;;;;;;;13.27;90.67;91285.06;5032836;28;20036;-67
2022/05/13 04:57:07;;;;;;;3.75;3.00;;;;;;;13.52;88.98;91282.66;5032963;28;20116;-67
2022/05/13 04:59:32;;;;;;;3.03;2.75;;;;;;;13.72;86.96;91293.47;5033042;28;20040;-67
2022/05/13 05:01:57;;;;;;;3.40;2.95;;;;;;;13.90;86.09;91288.88;5032805;28;20475;-67
2022/05/13 05:04:23;;;;;;;3.53;3.15;;;;;;;14.07;85.08;91288.03;5032860;28;20022;-67
2022/05/13 05:06:48;;;;;;;4.60;3.13;;;;;;;14.21;84.39;91282.47;5032730;28;20045;-67
2022/05/13 05:09:14;;;;;;;3.63;3.30;;;;;;;14.46;83.88;91288.84;5032654;28;20038;-67
2022/05/13 05:11:39;;;;;;;5.00;3.90;;;;;;;14.68;85.62;91285.91;5032609;28;20029;-68
2022/05/13 05:14:05;;;;;;;3.45;2.95;;;;;;;14.78;89.55;91295.44;5032517;28;20044;-68
2022/05/13 05:16:30;;;;;;;7.97;4.38;;;;;;;15.22;88.80;91292.13;5032473;28;20038;-67
2022/05/13 05:18:56;;;;;;;3.42;3.13;;;;;;;18.14;73.12;91301.31;5030845;28;20121;-68
2022/05/13 05:21:22;;;;;;;3.00;2.70;;;;;;;21.25;59.39;91295.78;5032300;28;20037;-67
2022/05/13 05:23:49;;;;;;;5.75;2.80;;;;;;;23.82;50.26;91293.72;5031896;28;20026;-67
2022/05/13 05:26:14;;;;;;;4.75;3.10;;;;;;;25.66;45.76;91297.94;5031805;28;20026;-68
2022/05/13 05:28:40;;;;;;;3.83;3.38;;;;;;;27.45;41.71;91304.09;5032086;28;20033;-68
2022/05/13 05:31:08;;;;;;;16.73;3.65;;;;;;;28.99;39.04;91301.25;5031905;28;20415;-68
2022/05/13 05:33:33;;;;;;;13.10;3.83;;;;;;;30.35;37.38;91299.78;5032125;28;20108;-69
2022/05/13 05:35:59;;;;;;;3.58;2.70;;;;;;;31.51;34.04;91297.69;5031775;28;20137;-68
2022/05/13 05:38:25;;;;;;;7.35;2.92;;;;;;;32.69;32.56;91295.44;5031922;28;20566;-69
2022/05/13 05:40:50;;;;;;;3.80;2.78;;;;;;;33.21;31.59;91299.81;5031833;28;20109;-69
2022/05/13 05:43:17;;;;;;;6.47;3.10;;;;;;;32.62;31.94;91299.16;5032136;28;20049;-68
2022/05/13 05:45:43;;;;;;;5.07;3.17;;;;;;;32.24;32.42;91301.00;5031976;28;20516;-68
2022/05/13 05:48:11;;;;;;;5.72;3.45;;;;;;;33.15;32.26;91299.63;5031946;28;20123;-68
2022/05/13 05:50:36;;;;;;;4.38;3.13;;;;;;;33.89;30.67;91302.03;5031742;28;20057;-68
2022/05/13 05:53:02;;;;;;;3.20;2.90;;;;;;;34.97;29.48;91293.56;5031908;28;20108;-69
2022/05/13 05:58:15;;;;;;;7.88;3.60;;;;;;;34.80;29.20;91290.97;5032017;28;20077;-69
2022/05/13 06:00:45;;;;;;;3.85;3.38;;;;;;;35.35;28.66;91298.84;5031606;28;20021;-69
2022/05/13 06:03:10;;;;;;;3.10;2.67;;;;;;;36.16;27.97;91291.28;5031698;28;20030;-68
2022/05/13 06:05:36;;;;;;;8.48;4.32;;;;;;;36.24;28.12;91292.50;5031711;28;20525;-68
2022/05/13 06:08:05;;;;;;;4.35;3.22;;;;;;;35.68;28.12;91299.16;5031611;28;20100;-68
2022/05/13 06:10:31;;;;;;;3.70;3.08;;;;;;;36.39;27.55;91287.91;5031102;28;20461;-68
2022/05/13 06:12:57;;;;;;;3.30;3.00;;;;;;;36.06;28.09;91295.25;5030653;28;20434;-68
2022/05/13 06:15:23;;;;;;;4.75;3.33;;;;;;;35.90;27.99;91283.22;5020500;28;20030;-68
2022/05/13 06:17:55;;;;;;;5.90;2.88;;;;;;;35.96;28.08;91288.91;5022084;28;20498;-68
2022/05/13 06:20:24;;;;;;;5.95;3.17;;;;;;;35.75;28.39;91289.78;5019323;28;20484;-68
2022/05/13 06:22:49;;;;;;;4.82;2.92;;;;;;;36.83;27.69;91279.31;5014375;28;20033;-68
2022/05/13 06:25:16;;;;;;;3.35;3.00;;;;;;;35.27;28.98;91287.25;5021234;28;20038;-68
2022/05/13 06:27:42;;;;;;;4.15;3.28;;;;;;;33.97;29.91;91274.97;5030819;28;20025;-68
2022/05/13 06:30:10;;;;;;;4.80;3.38;;;;;;;34.47;29.29;91268.50;5021573;28;20495;-68
2022/05/13 06:32:36;;;;;;;3.92;2.67;;;;;;;36.47;27.52;91278.06;5021086;28;20480;-69
2022/05/13 06:35:02;;;;;;;3.45;3.15;;;;;;;35.88;28.15;91280.16;5019351;28;20037;-68
2022/05/13 06:37:28;;;;;;;8.65;3.45;;;;;;;35.63;28.96;91275.59;5022402;28;20485;-68
2022/05/13 06:39:53;;;;;;;6.85;3.33;;;;;;;37.07;27.61;91271.06;5030345;28;20031;-68
2022/05/13 06:42:19;;;;;;;4.25;3.03;;;;;;;37.54;27.02;91278.03;5030499;28;20200;-69
2022/05/13 06:44:44;;;;;;;4.32;3.47;;;;;;;37.58;26.87;91276.63;5030762;28;20033;-68
2022/05/13 06:47:09;;;;;;;3.70;2.88;;;;;;;39.05;26.44;91275.66;5030305;28;20033;-68
2022/05/13 06:49:35;;;;;;;4.90;3.30;;;;;;;38.69;26.09;91274.00;5020649;28;20045;-68
2022/05/13 06:52:03;;;;;;;6.93;4.63;;;;;;;36.97;27.39;91275.88;5021274;28;20018;-68
2022/05/13 06:54:29;;;;;;;13.95;3.97;;;;;;;34.88;29.50;91272.19;5019640;28;20085;-69
2022/05/13 06:56:54;;;;;;;5.47;3.42;;;;;;;35.33;29.13;91271.59;5030498;28;20777;-68
2022/05/13 06:59:20;;;;;;;13.57;4.00;;;;;;;38.17;26.75;91265.03;5030989;28;20091;-70
2022/05/13 07:01:46;;;;;;;5.90;4.80;;;;;;;37.23;27.34;91272.72;5030851;28;20051;-70
2022/05/13 07:04:12;;;;;;;6.93;4.68;;;;;;;37.55;27.16;91272.00;5029689;28;20544;-69
2022/05/13 07:06:38;;;;;;;4.70;3.28;;;;;;;36.81;27.48;91257.59;5030941;28;20037;-69
2022/05/13 07:09:04;;;;;;;13.65;4.93;;;;;;;37.43;26.41;91264.66;5007378;28;20034;-70
2022/05/13 07:11:30;;;;;;;17.73;9.95;;;;;;;37.81;26.25;91269.59;5010963;28;20558;-68
2022/05/13 07:13:55;;;;;;;6.30;3.50;;;;;;;35.38;28.68;91270.28;5010926;28;20026;-68
2022/05/13 07:16:21;;;;;;;4.05;3.00;;;;;;;36.11;27.91;91258.63;5021800;28;20029;-68
2022/05/13 07:18:47;;;;;;;3.65;3.08;;;;;;;35.82;28.66;91259.81;5030890;28;20025;-69
2022/05/13 07:21:14;;;;;;;7.00;3.17;;;;;;;34.58;29.12;91243.25;5030684;28;20551;-68
2022/05/13 07:23:40;;;;;;;6.10;3.25;;;;;;;34.40;29.99;91252.19;5030252;28;20056;-68
2022/05/13 07:26:05;;;;;;;4.55;3.40;;;;;;;34.95;27.80;91251.78;5030607;28;20033;-69
2022/05/13 07:28:31;;;;;;;5.72;3.20;;;;;;;34.87;28.16;91250.47;5029824;28;20041;-69
2022/05/13 07:30:57;;;;;;;16.75;4.00;;;;;;;36.77;26.70;91245.06;5027228;28;20067;-69
2022/05/13 07:33:23;;;;;;;4.05;3.00;;;;;;;35.62;27.60;91238.06;5029913;28;20028;-70
2022/05/13 07:35:49;;;;;;;4.97;3.63;;;;;;;33.76;29.46;91248.03;5019351;28;20022;-69
2022/05/13 07:38:14;;;;;;;4.85;2.90;;;;;;;35.84;27.40;91251.84;5021061;28;20029;-69
2022/05/13 07:43:23;;;;;;;5.38;3.20;;;;;;;34.14;28.02;91245.97;5027982;28;20102;-69
2022/05/13 07:45:49;;;;;;;6.10;3.20;;;;;;;33.01;29.81;91240.16;5029977;28;20029;-68
2022/05/13 07:48:14;;;;;;;7.95;3.42;;;;;;;33.30;28.95;91237.28;5014625;28;20449;-68
2022/05/13 07:50:42;;;;;;;3.53;2.95;;;;;;;34.12;27.95;91237.38;5014512;28;20050;-68
2022/05/13 07:53:08;;;;;;;5.90;3.20;;;;;;;33.56;28.65;91240.78;5014457;28;20029;-68
2022/05/13 07:55:34;;;;;;;3.63;2.67;;;;;;;34.38;29.24;91237.25;5014258;28;20030;-68
2022/05/13 07:57:59;;;;;;;3.30;3.00;;;;;;;34.67;27.28;91240.53;5014187;28;20416;-68
2022/05/13 08:00:29;;;;;;;3.33;2.95;;;;;;;35.57;26.63;91235.91;5014504;28;20069;-69
2022/05/13 08:02:57;;;;;;;8.25;5.68;;;;;;;32.98;30.04;91229.22;5014225;28;20030;-69
2022/05/13 08:05:23;;;;;;;4.25;3.72;;;;;;;31.80;32.90;91227.03;5014157;28;20034;-70
2022/05/13 08:07:58;;;;;;;3.28;2.97;;;;;;;32.66;30.57;91233.69;5013654;28;20104;-69
2022/05/13 08:10:24;;;;;;;4.13;3.72;;;;;;;33.93;29.39;91221.88;5020034;28;20034;-69
2022/05/13 08:12:49;;;;;;;4.78;2.83;;;;;;;35.93;27.07;91229.69;5021153;28;20079;-69
2022/05/13 08:15:15;;;;;;;5.07;3.30;;;;;;;37.41;26.11;91209.63;5030380;28;20037;-69
2022/05/13 08:17:40;;;;;;;4.22;2.60;;;;;;;38.00;24.70;91220.25;5033172;28;20101;-69
2022/05/13 08:20:06;;;;;;;3.65;2.70;;;;;;;39.83;24.60;91224.03;5022459;28;20022;-69
2022/05/13 08:22:32;;;;;;;3.63;2.42;;;;;;;37.50;25.80;91217.13;5023511;28;20048;-69
2022/05/13 08:24:57;;;;;;;6.80;2.78;;;;;;;35.83;26.14;91214.28;5022219;28;20404;-69
2022/05/13 08:27:22;;;;;;;2.97;2.58;;;;;;;36.15;27.04;91217.72;5022603;28;20115;-69
2022/05/13 08:29:48;;;;;;;3.95;2.95;;;;;;;36.42;26.68;91209.41;5031211;28;20033;-68
2022/05/13 08:32:13;;;;;;;3.78;2.88;;;;;;;35.74;26.43;91211.47;5019376;28;20022;-69
2022/05/13 08:34:39;;;;;;;6.68;3.53;;;;;;;36.97;26.86;91214.09;5020266;28;20030;-69
2022/05/13 08:37:04;;;;;;;3.17;2.33;;;;;;;38.79;23.95;91206.66;5013006;28;20040;-69
2022/05/13 08:39:29;;;;;;;3.42;2.90;;;;;;;39.36;23.79;91208.38;5013316;28;20475;-69
2022/05/13 08:42:07;;;;;;;3.15;2.78;;;;;;;36.11;26.34;91219.84;5013338;28;20036;-69
2022/05/13 08:44:33;;;;;;;4.05;2.50;;;;;;;36.52;25.94;91208.16;5013282;28;20033;-69
2022/05/13 08:47:17;;;;;;;3.53;3.13;;;;;;;36.21;26.61;91204.78;5011976;28;20026;-70
2022/05/13 08:49:51;;;;;;;3.70;2.80;;;;;;;34.57;27.43;91208.56;5013047;28;20432;-70
2022/05/13 08:55:27;;;;;;;2.60;2.40;;;;;;;32.73;29.48;91202.41;5031689;28;20094;-69
2022/05/13 08:57:56;;;;;;;3.35;2.97;;;;;;;33.14;29.01;91192.50;5030616;28;20388;-69
2022/05/13 09:00:36;;;;;;;6.13;3.08;;;;;;;35.71;26.47;91195.81;5029413;28;20519;-69
2022/05/13 09:03:16;;;;;;;7.10;3.40;;;;;;;35.57;27.43;91188.84;5029627;28;20090;-69
2022/05/13 09:05:51;;;;;;;3.58;3.28;;;;;;;34.40;27.78;91185.09;5029055;28;20022;-69
2022/05/13 09:08:17;;;;;;;5.55;2.38;;;;;;;35.10;27.03;91186.41;5032695;28;20032;-69
2022/05/13 09:10:58;;;;;;;4.90;3.05;;;;;;;35.29;26.12;91179.69;5032584;28;20021;-70
2022/05/13 09:13:35;;;;;;;3.80;3.08;;;;;;;32.90;29.21;91170.03;5031630;28;20086;-70
2022/05/13 09:16:02;;;;;;;4.45;2.25;;;;;;;33.06;29.28;91165.16;5031765;28;20036;-70
2022/05/13 09:18:58;;;;;;;3.55;2.90;;;;;;;34.32;28.37;91150.66;5019369;28;20425;-70
2022/05/13 09:21:23;;;;;;;9.77;3.00;;;;;;;36.20;25.93;91178.31;5012139;28;20029;-73
2022/05/13 09:23:48;;;;;;;3.15;2.40;;;;;;;36.95;25.49;91175.75;5021042;28;20037;-71
2022/05/13 09:26:20;;;;;;;2.20;2.00;;;;;;;35.55;26.81;91171.19;5031874;28;20487;-71
2022/05/13 09:29:11;;;;;;;6.10;3.20;;;;;;;35.86;26.42;91168.31;5032243;28;20029;-70
2022/05/13 09:31:45;;;;;;;3.03;2.70;;;;;;;35.59;27.60;91158.72;5032163;28;20403;-72
2022/05/13 09:34:28;;;;;;;4.88;2.65;;;;;;;35.34;25.12;91168.00;5032077;28;20040;-71
2022/05/13 09:37:03;;;;;;;2.78;2.10;;;;;;;35.66;25.44;91161.19;5031536;28;20026;-71
2022/05/13 09:39:38;;;;;;;2.42;2.10;;;;;;;34.80;26.23;91163.81;5031986;28;20033;-73
2022/05/13 09:42:21;;;;;;;4.22;2.70;;;;;;;34.88;26.02;91155.28;5032104;28;20034;-74
2022/05/13 09:44:47;;;;;;;3.17;2.20;;;;;;;37.06;26.36;91144.69;5032060;28;20038;-73
2022/05/13 09:47:26;;;;;;;2.58;2.00;;;;;;;37.84;24.66;91156.78;5032001;28;20103;-73
2022/05/13 09:49:54;;;;;;;2.38;2.17;;;;;;;34.08;26.10;91147.56;5031774;28;20111;-74
2022/05/13 09:52:33;;;;;;;4.38;2.97;;;;;;;34.55;27.19;91147.41;5032123;28;20034;-73
2022/05/13 09:55:23;;;;;;;2.25;2.05;;;;;;;35.26;25.98;91144.66;5031143;28;20047;-73
2022/05/13 09:57:51;;;;;;;2.08;1.80;;;;;;;34.79;26.33;91142.16;5030153;28;20065;-72
2022/05/13 10:00:25;;;;;;;3.30;2.28;;;;;;;36.35;25.34;91137.69;5028527;28;20041;-72
2022/05/13 10:03:04;;;;;;;;;;;;;;;36.00;24.81;91135.25;5032402;28;20072;-72
2022/05/13 10:05:32;;;;;;;2.22;2.03;;;;;;;35.66;25.74;91128.00;5031718;28;19913;-72
2022/05/13 10:08:14;;;;;;;6.70;2.58;;;;;;;36.62;24.12;91125.75;5031714;28;20026;-73
2022/05/13 10:13:59;;;;;;;4.45;2.53;;;;;;;33.15;27.21;91119.63;5031876;28;20032;-73
2022/05/13 10:16:34;;;;;;;2.75;2.35;;;;;;;34.06;26.96;91125.94;5058340;28;20048;-73
2022/05/13 10:19:07;;;;;;;3.15;2.05;;;;;;;35.69;25.09;91118.00;5031535;28;20022;-73
2022/05/13 10:21:46;;;;;;;2.08;1.80;;;;;;;35.04;26.63;91124.63;5031656;28;20108;-73
2022/05/13 10:24:33;;;;;;;3.97;2.38;;;;;;;35.76;25.92;91119.66;5031559;28;20099;-73
2022/05/13 10:27:02;;;;;;;2.33;2.13;;;;;;;36.11;25.01;91120.13;5031372;28;20030;-73
2022/05/13 10:29:43;;;;;;;2.30;1.90;;;;;;;37.09;23.92;91110.50;5031178;28;20033;-73
2022/05/13 10:32:24;;;;;;;3.03;2.30;;;;;;;35.29;24.84;91112.53;5029682;28;20100;-74
2022/05/13 10:34:54;;;;;;;2.40;2.10;;;;;;;36.40;24.92;91105.78;5031316;28;20481;-74
2022/05/13 10:37:25;;;;;;;6.38;3.40;;;;;;;35.63;25.80;91094.91;5031197;28;20151;-73
2022/05/13 10:39:54;;;;;;;2.00;1.80;;;;;;;36.54;25.01;91105.91;5031105;28;20033;-73
2022/05/13 10:42:25;;;;;;;4.65;2.00;;;;;;;35.84;26.16;91098.75;5030935;28;20112;-72
2022/05/13 10:45:02;;;;;;;4.15;2.40;;;;;;;35.75;26.38;91101.53;5030774;28;20064;-73
2022/05/13 10:47:40;;;;;;;2.30;2.10;;;;;;;36.36;25.26;91100.41;5025014;28;20065;-73
2022/05/13 10:50:18;;;;;;;3.38;2.58;;;;;;;36.98;26.32;91099.13;5030807;28;20088;-73
2022/05/13 10:53:08;;;;;;;6.03;2.28;;;;;;;37.47;25.36;91079.28;5030910;28;20500;-73
2022/05/13 10:55:49;;;;;;;3.25;2.50;;;;;;;37.23;24.56;91095.13;5030846;28;20049;-73
2022/05/13 10:58:20;;;;;;;2.35;2.15;;;;;;;38.17;23.85;91089.97;5030801;28;20500;-73
2022/05/13 11:01:10;;;;;;;4.25;2.40;;;;;;;37.00;24.94;91086.34;5028060;28;20111;-72
2022/05/13 11:04:03;;;;;;;17.02;3.33;;;;;;;36.21;25.65;91077.34;5022274;28;20049;-73
2022/05/13 11:06:40;;;;;;;2.72;2.15;;;;;;;37.29;24.70;91071.88;5015673;28;20045;-73
2022/05/13 11:09:34;;;;;;;4.68;2.20;;;;;;;35.15;26.37;91072.41;5019940;28;20053;-72
2022/05/13 11:12:29;;;;;;;3.00;2.33;;;;;;;34.42;27.33;91067.41;5021375;28;20042;-73
2022/05/13 11:15:04;;;;;;;7.22;2.60;;;;;;;34.62;28.35;91067.03;5026516;28;20157;-73
2022/05/13 11:17:45;;;;;;;6.20;3.63;;;;;;;34.62;29.19;91064.25;5030474;28;20037;-73
2022/05/13 11:20:35;;;;;;;3.55;2.17;;;;;;;33.23;28.70;91063.00;5018664;28;20401;-73
2022/05/13 11:23:07;;;;;;;2.60;2.40;;;;;;;34.19;29.01;91057.59;5032060;28;20029;-73
2022/05/13 11:25:57;;;;;;;2.50;2.30;;;;;;;32.86;29.90;91059.91;5025448;28;20117;-73
2022/05/13 11:29:04;;;;;;;2.42;2.22;;;;;;;32.52;30.47;91051.56;5025929;28;20030;-72
2022/05/13 11:31:32;;;;;;;3.15;2.85;;;;;;;34.20;29.51;91058.34;5030026;28;20060;-72
2022/05/13 11:34:22;;;;;;;3.42;2.60;;;;;;;34.01;29.43;91054.75;5034296;28;20112;-72
2022/05/13 11:36:58;;;;;;;4.68;2.40;;;;;;;33.45;29.86;91055.56;5032457;28;20455;-73
2022/05/13 11:39:42;;;;;;;2.78;2.53;;;;;;;34.07;29.46;91046.63;5032019;28;20179;-73
2022/05/13 11:42:26;;;;;;;5.55;2.65;;;;;;;32.99;31.40;91043.34;5032751;28;20527;-73
2022/05/13 11:45:24;;;;;;;3.90;2.63;;;;;;;32.36;31.17;91035.94;5030908;28;20124;-72
2022/05/13 11:47:58;;;;;;;5.20;2.80;;;;;;;32.25;30.88;91036.22;5021010;28;20095;-72
2022/05/13 11:50:30;;;;;;;2.88;2.60;;;;;;;33.01;30.84;91038.16;5031296;28;20057;-72
2022/05/13 11:52:58;;;;;;;3.50;2.42;;;;;;;34.64;29.99;91039.69;5026001;28;20038;-72
2022/05/13 11:55:29;;;;;;;4.30;2.47;;;;;;;33.63;30.19;91030.88;5033740;28;20427;-72
2022/05/13 11:57:55;;;;;;;2.30;1.90;;;;;;;34.91;29.91;91029.97;5021067;28;20484;-73
2022/05/13 12:00:31;;;;;;;3.13;2.50;;;;;;;35.49;28.82;91020.78;5033774;28;20087;-74
2022/05/13 12:03:08;;;;;;;2.60;2.35;;;;;;;33.50;29.30;91026.63;5033549;28;20033;-72
2022/05/13 12:05:57;;;;;;;3.03;2.13;;;;;;;33.31;31.46;91020.97;5038705;28;20048;-71